Time;durP1;ratioP1;P1;durP2;ratioP2;P2;SDS_P1;SDS_P2;PMS_P1;PMS_P2;Temp;Humidity;BMP_temperature;BMP_pressure;BME280_temperature;BME280_humidity;BME280_pressure;Samples;Min_cycle;Max_cycle;Signal;HPM_P1;HPM_P2
2023/05/07 00:00:20;;;;;;;16.47;12.63;;;;;;;9.20;100.00;102226.34;5022522;28;20348;-67
2023/05/07 00:02:46;;;;;;;14.57;12.90;;;;;;;9.20;100.00;102228.03;5019448;28;20314;-69
2023/05/07 00:05:12;;;;;;;14.83;12.83;;;;;;;9.15;100.00;102227.81;5023535;28;20190;-67
2023/05/07 00:07:37;;;;;;;15.17;11.90;;;;;;;9.17;100.00;102235.56;5019657;28;20198;-67
2023/05/07 00:10:04;;;;;;;12.47;10.97;;;;;;;9.20;100.00;102235.69;5025774;28;20190;-67
2023/05/07 00:12:33;;;;;;;13.33;11.53;;;;;;;9.18;100.00;102233.09;5016521;28;20206;-67
2023/05/07 00:15:00;;;;;;;13.40;10.77;;;;;;;9.22;100.00;102240.06;5015061;28;20206;-67
2023/05/07 00:17:26;;;;;;;13.77;12.10;;;;;;;9.22;100.00;102240.06;5024142;28;20265;-68
2023/05/07 00:19:51;;;;;;;14.87;12.43;;;;;;;9.26;100.00;102236.84;5017460;28;20191;-67
2023/05/07 00:22:17;;;;;;;11.73;10.47;;;;;;;9.22;100.00;102237.50;5024377;28;20221;-67
2023/05/07 00:24:42;;;;;;;12.83;10.80;;;;;;;9.25;100.00;102234.22;5026584;28;20273;-68
2023/05/07 00:27:08;;;;;;;13.07;11.33;;;;;;;9.25;100.00;102239.34;5006078;28;20194;-68
2023/05/07 00:29:34;;;;;;;13.83;11.47;;;;;;;9.25;100.00;102240.22;5021810;28;20672;-68
2023/05/07 00:31:59;;;;;;;14.60;11.40;;;;;;;9.25;100.00;102227.44;5027086;28;20296;-68
2023/05/07 00:34:25;;;;;;;15.30;12.13;;;;;;;9.26;100.00;102230.88;5024896;28;20224;-69
2023/05/07 00:36:50;;;;;;;14.77;11.63;;;;;;;9.24;100.00;102225.69;5025855;28;20206;-68
2023/05/07 00:39:16;;;;;;;14.60;12.40;;;;;;;9.26;100.00;102236.00;5028775;28;20218;-67
2023/05/07 00:41:41;;;;;;;15.40;12.40;;;;;;;9.23;100.00;102229.06;5009443;28;20746;-68
2023/05/07 00:44:07;;;;;;;12.80;10.37;;;;;;;9.23;100.00;102236.75;5025978;28;20217;-67
2023/05/07 00:46:32;;;;;;;13.33;10.40;;;;;;;9.26;100.00;102231.75;5024444;28;20209;-68
2023/05/07 00:48:59;;;;;;;12.30;11.00;;;;;;;9.25;100.00;102234.22;5030544;28;20230;-67
2023/05/07 00:51:27;;;;;;;12.37;10.47;;;;;;;9.24;100.00;102223.16;5010973;28;20226;-67
2023/05/07 00:53:53;;;;;;;16.10;11.03;;;;;;;9.27;100.00;102232.63;5007198;28;20233;-67
2023/05/07 00:56:21;;;;;;;12.23;10.37;;;;;;;9.27;100.00;102220.72;5026190;28;20245;-67
2023/05/07 00:58:47;;;;;;;11.30;10.10;;;;;;;9.27;100.00;102219.84;5003363;28;20235;-67
2023/05/07 01:01:12;;;;;;;12.60;10.60;;;;;;;9.25;100.00;102226.56;5019864;28;20332;-67
2023/05/07 01:03:38;;;;;;;10.10;9.10;;;;;;;9.27;100.00;102220.72;5005440;28;20772;-68
2023/05/07 01:06:06;;;;;;;11.47;9.40;;;;;;;9.27;100.00;102201.97;5029859;28;20664;-67
2023/05/07 01:08:32;;;;;;;10.37;8.90;;;;;;;9.25;100.00;102214.66;5025500;28;20190;-68
2023/05/07 01:10:58;;;;;;;10.97;8.87;;;;;;;9.26;100.00;102215.56;5022546;28;20237;-68
2023/05/07 01:13:24;;;;;;;11.00;8.83;;;;;;;9.26;100.00;102218.97;5026025;28;20199;-67
2023/05/07 01:15:50;;;;;;;10.73;9.30;;;;;;;9.28;100.00;102211.38;5008522;28;20209;-67
2023/05/07 01:18:16;;;;;;;9.90;8.90;;;;;;;9.28;100.00;102214.81;5007315;28;20222;-68
2023/05/07 01:20:42;;;;;;;9.80;8.77;;;;;;;9.27;100.00;102213.03;5007600;28;20214;-67
2023/05/07 01:23:10;;;;;;;9.20;8.20;;;;;;;9.28;100.00;102222.50;5027589;28;20218;-67
2023/05/07 01:25:36;;;;;;;9.57;8.57;;;;;;;9.30;100.00;102214.91;5012056;28;20196;-67
2023/05/07 01:28:02;;;;;;;9.23;8.17;;;;;;;9.29;100.00;102214.00;5011112;28;20178;-68
2023/05/07 01:30:30;;;;;;;9.63;8.63;;;;;;;9.29;100.00;102213.13;5026404;28;20246;-68
2023/05/07 01:33:04;;;;;;;10.10;9.00;;;;;;;9.30;100.00;102210.63;5010179;28;20281;-68
2023/05/07 01:35:35;;;;;;;11.17;9.63;;;;;;;9.29;100.00;102202.91;5005251;28;20190;-68
2023/05/07 01:38:04;;;;;;;11.03;9.43;;;;;;;9.28;100.00;102207.16;5010020;28;20218;-69
2023/05/07 01:40:30;;;;;;;10.63;9.30;;;;;;;9.29;100.00;102208.91;5012033;28;20214;-67
2023/05/07 01:42:56;;;;;;;10.77;9.67;;;;;;;9.28;100.00;102206.28;5021104;28;20542;-67
2023/05/07 01:45:22;;;;;;;10.40;9.30;;;;;;;9.28;100.00;102198.59;5023850;28;20194;-67
2023/05/07 01:47:49;;;;;;;11.17;9.97;;;;;;;9.30;100.00;102208.09;5000049;28;20780;-68
2023/05/07 01:50:16;;;;;;;13.50;10.67;;;;;;;9.28;100.00;102212.25;5024617;28;20213;-67
2023/05/07 01:52:42;;;;;;;12.70;10.60;;;;;;;9.28;100.00;102203.72;5019410;28;20202;-67
2023/05/07 01:55:08;;;;;;;11.37;10.17;;;;;;;9.26;100.00;102206.19;5024228;28;20194;-68
2023/05/07 01:57:34;;;;;;;12.40;10.97;;;;;;;9.29;100.00;102206.34;5019229;28;20722;-68
2023/05/07 01:59:59;;;;;;;13.00;10.87;;;;;;;9.30;100.00;102207.22;5006867;28;20187;-67
2023/05/07 02:02:25;;;;;;;13.20;11.00;;;;;;;9.27;100.00;102207.94;5026333;28;20205;-67
2023/05/07 02:04:52;;;;;;;13.57;10.73;;;;;;;9.28;100.00;102214.81;5008251;28;20266;-67
2023/05/07 02:07:19;;;;;;;13.07;10.93;;;;;;;9.30;100.00;102218.31;5026467;28;20669;-67
2023/05/07 02:09:44;;;;;;;13.40;11.27;;;;;;;9.24;100.00;102223.16;5010345;28;20198;-67
2023/05/07 02:12:10;;;;;;;12.80;10.53;;;;;;;9.24;100.00;102217.16;5025871;28;20867;-67
2023/05/07 02:14:35;;;;;;;13.90;10.87;;;;;;;9.26;100.00;102229.19;5018604;28;20205;-67
2023/05/07 02:17:01;;;;;;;14.50;11.10;;;;;;;9.25;100.00;102221.44;5024053;28;20338;-69
2023/05/07 02:19:26;;;;;;;15.03;10.90;;;;;;;9.23;100.00;102228.19;5009972;28;20583;-69
2023/05/07 02:21:52;;;;;;;13.40;10.50;;;;;;;9.24;100.00;102219.69;5010258;28;20288;-68
2023/05/07 02:24:19;;;;;;;14.43;11.43;;;;;;;9.20;100.00;102228.91;5027601;28;20202;-68
2023/05/07 02:26:44;;;;;;;15.50;11.03;;;;;;;9.19;100.00;102229.72;5012102;28;20201;-68
2023/05/07 02:29:10;;;;;;;14.37;11.00;;;;;;;9.20;100.00;102239.13;5007990;28;20194;-67
2023/05/07 02:31:37;;;;;;;13.50;11.20;;;;;;;9.19;100.00;102236.50;5007726;28;20562;-68
2023/05/07 02:34:03;;;;;;;14.37;11.53;;;;;;;9.18;100.00;102235.66;5007163;28;20198;-68
2023/05/07 02:36:29;;;;;;;13.33;11.20;;;;;;;9.19;100.00;102231.38;5027308;28;20680;-68
2023/05/07 02:39:05;;;;;;;16.90;13.17;;;;;;;9.18;100.00;102235.66;5006739;28;20225;-68
2023/05/07 02:41:31;;;;;;;16.60;11.97;;;;;;;9.19;100.00;102241.63;5002707;28;20211;-68
2023/05/07 02:43:57;;;;;;;16.50;12.77;;;;;;;9.17;100.00;102236.44;5025127;28;20818;-68
2023/05/07 02:46:23;;;;;;;16.87;12.43;;;;;;;9.17;100.00;102244.09;5006841;28;20225;-68
2023/05/07 02:48:56;;;;;;;16.13;11.90;;;;;;;9.17;100.00;102240.69;5003609;28;20187;-68
2023/05/07 02:51:22;;;;;;;16.77;12.27;;;;;;;9.20;100.00;102240.81;5002181;28;20207;-68
2023/05/07 02:53:48;;;;;;;13.50;11.90;;;;;;;9.18;100.00;102240.75;5014747;28;20195;-68
2023/05/07 02:56:14;;;;;;;13.37;11.57;;;;;;;9.13;100.00;102238.78;5005459;28;20671;-68
2023/05/07 02:58:41;;;;;;;13.53;11.73;;;;;;;9.14;100.00;102240.53;5009345;28;20661;-68
2023/05/07 03:01:08;;;;;;;13.07;11.33;;;;;;;9.15;100.00;102243.16;5008125;28;20264;-68
2023/05/07 03:03:38;;;;;;;14.63;11.57;;;;;;;9.16;100.00;102244.00;5018926;28;20229;-68
2023/05/07 03:06:04;;;;;;;14.90;11.53;;;;;;;9.11;100.00;102235.25;5006623;28;20675;-68
2023/05/07 03:08:29;;;;;;;13.10;11.43;;;;;;;9.14;100.00;102236.31;5023502;28;20265;-68
2023/05/07 03:10:55;;;;;;;13.73;10.77;;;;;;;9.15;100.00;102238.03;5010174;28;20210;-68
2023/05/07 03:13:21;;;;;;;13.17;11.00;;;;;;;9.16;100.00;102231.22;5026552;28;20201;-68
2023/05/07 03:15:46;;;;;;;14.20;11.33;;;;;;;9.18;100.00;102239.88;5006818;28;20195;-68
2023/05/07 03:18:12;;;;;;;14.83;11.00;;;;;;;9.17;100.00;102238.97;5009670;28;20213;-68
2023/05/07 03:20:37;;;;;;;12.50;10.87;;;;;;;9.15;100.00;102237.16;5011722;28;20214;-69
2023/05/07 03:23:03;;;;;;;13.50;11.03;;;;;;;9.17;100.00;102246.66;5020953;28;20193;-68
2023/05/07 03:25:29;;;;;;;12.67;10.87;;;;;;;9.17;100.00;102238.97;4992138;28;20277;-69
2023/05/07 03:27:56;;;;;;;14.70;11.30;;;;;;;9.14;100.00;102251.63;5008915;28;20198;-68
2023/05/07 03:30:24;;;;;;;12.07;10.03;;;;;;;9.15;100.00;102255.03;5024806;28;20377;-68
2023/05/07 03:32:50;;;;;;;12.87;10.70;;;;;;;9.17;100.00;102240.69;5003521;28;20274;-68
2023/05/07 03:35:16;;;;;;;13.47;11.37;;;;;;;9.18;100.00;102247.53;5004218;28;20667;-68
2023/05/07 03:37:42;;;;;;;13.27;11.37;;;;;;;9.19;100.00;102251.84;5007079;28;20217;-67
2023/05/07 03:40:10;;;;;;;12.77;10.83;;;;;;;9.19;100.00;102247.63;5026991;28;20202;-67
2023/05/07 03:42:42;;;;;;;14.07;12.00;;;;;;;9.19;100.00;102244.16;5023607;28;20223;-69
2023/05/07 03:45:08;;;;;;;16.57;12.10;;;;;;;9.19;100.00;102241.63;5005346;28;20297;-68
2023/05/07 03:47:34;;;;;;;14.53;11.23;;;;;;;9.19;100.00;102246.72;5023947;28;20186;-68
2023/05/07 03:50:00;;;;;;;12.97;11.10;;;;;;;9.19;100.00;102259.50;5004038;28;20718;-68
2023/05/07 03:52:25;;;;;;;13.17;10.50;;;;;;;9.19;100.00;102249.28;5006594;28;20198;-68
2023/05/07 03:54:53;;;;;;;13.47;10.37;;;;;;;9.20;100.00;102254.47;5005277;28;20191;-68
2023/05/07 03:57:20;;;;;;;11.97;10.03;;;;;;;9.19;100.00;102247.63;5005946;28;20281;-68
2023/05/07 03:59:45;;;;;;;14.87;11.63;;;;;;;9.22;100.00;102250.28;5006744;28;20197;-68
2023/05/07 04:02:11;;;;;;;13.53;11.30;;;;;;;9.22;100.00;102249.44;5002502;28;20225;-68
2023/05/07 04:04:37;;;;;;;14.10;12.03;;;;;;;9.19;100.00;102251.84;5007498;28;20186;-69
2023/05/07 04:07:03;;;;;;;14.10;11.50;;;;;;;9.21;100.00;102252.81;5012584;28;20277;-69
2023/05/07 04:09:30;;;;;;;13.73;10.90;;;;;;;9.21;100.00;102255.34;4990979;28;20190;-69
2023/05/07 04:11:56;;;;;;;12.87;11.33;;;;;;;9.22;100.00;102264.78;5020828;28;20281;-68
2023/05/07 04:14:21;;;;;;;11.13;9.93;;;;;;;9.20;100.00;102262.13;5030007;28;20648;-67
2023/05/07 04:16:47;;;;;;;13.60;10.43;;;;;;;9.23;100.00;102262.28;5011429;28;20602;-67
2023/05/07 04:19:13;;;;;;;14.20;11.07;;;;;;;9.24;100.00;102255.47;5009030;28;20214;-67
2023/05/07 04:21:39;;;;;;;12.30;11.00;;;;;;;9.21;100.00;102261.31;5010585;28;20237;-67
2023/05/07 04:24:05;;;;;;;12.83;10.80;;;;;;;9.21;100.00;102266.44;5012560;28;20222;-67
2023/05/07 04:26:31;;;;;;;13.77;10.77;;;;;;;9.26;100.00;102266.66;5029019;28;20274;-68
2023/05/07 04:28:58;;;;;;;13.17;10.50;;;;;;;9.27;100.00;102255.63;5009751;28;20187;-67
2023/05/07 04:31:26;;;;;;;12.33;10.57;;;;;;;9.28;100.00;102262.50;5012760;28;20225;-67
2023/05/07 04:33:53;;;;;;;14.53;10.90;;;;;;;9.28;100.00;102259.94;5011557;28;20569;-67
2023/05/07 04:36:19;;;;;;;11.00;9.90;;;;;;;9.31;100.00;102268.63;5027998;28;20195;-67
2023/05/07 04:38:50;;;;;;;13.33;10.40;;;;;;;9.28;100.00;102276.16;4997230;28;20238;-67
2023/05/07 04:41:17;;;;;;;12.17;10.47;;;;;;;9.31;100.00;102266.06;5012501;28;20869;-67
2023/05/07 04:43:42;;;;;;;12.17;9.93;;;;;;;9.31;100.00;102267.75;5009710;28;20225;-67
2023/05/07 04:46:09;;;;;;;13.73;10.20;;;;;;;9.33;100.00;102264.47;5010138;28;20225;-67
2023/05/07 04:48:36;;;;;;;12.17;10.07;;;;;;;9.33;100.00;102261.03;5010893;28;20240;-67
2023/05/07 04:51:03;;;;;;;11.93;10.03;;;;;;;9.33;100.00;102271.25;5010014;28;20262;-67
2023/05/07 04:53:29;;;;;;;11.33;9.47;;;;;;;9.37;100.00;102270.59;5027489;28;20198;-68
2023/05/07 04:55:56;;;;;;;12.97;9.67;;;;;;;9.34;100.00;102273.88;5012928;28;20190;-67
2023/05/07 04:58:23;;;;;;;11.97;9.77;;;;;;;9.37;100.00;102275.72;5006049;28;20218;-67
2023/05/07 05:00:49;;;;;;;11.87;10.07;;;;;;;9.38;100.00;102270.69;5021769;28;20210;-68
2023/05/07 05:03:15;;;;;;;11.73;9.77;;;;;;;9.40;100.00;102284.38;5025215;28;20190;-68
2023/05/07 05:05:40;;;;;;;11.77;10.27;;;;;;;9.42;100.00;102285.34;5020348;28;20194;-67
2023/05/07 05:08:06;;;;;;;18.10;10.70;;;;;;;9.40;100.00;102283.53;5024121;28;20269;-67
2023/05/07 05:10:35;;;;;;;12.13;10.13;;;;;;;9.43;100.00;102288.78;5003390;28;20207;-67
2023/05/07 05:13:00;;;;;;;11.97;10.13;;;;;;;9.45;100.00;102294.84;5006583;28;20194;-67
2023/05/07 05:15:26;;;;;;;11.00;9.43;;;;;;;9.46;100.00;102296.59;5010660;28;20256;-66
2023/05/07 05:17:52;;;;;;;11.70;9.80;;;;;;;9.47;100.00;102295.78;5008829;28;20213;-67
2023/05/07 05:20:17;;;;;;;11.57;9.90;;;;;;;9.51;100.00;102290.00;5007940;28;20705;-67
2023/05/07 05:22:43;;;;;;;12.03;9.80;;;;;;;9.49;100.00;102291.63;5009264;28;20250;-66
2023/05/07 05:25:09;;;;;;;11.03;9.83;;;;;;;9.53;100.00;102294.38;5008431;28;20203;-68
2023/05/07 05:27:35;;;;;;;12.33;10.20;;;;;;;9.55;100.00;102291.91;5013050;28;21045;-68
2023/05/07 05:30:01;;;;;;;11.53;10.23;;;;;;;9.56;100.00;102292.00;4993215;28;20187;-68
2023/05/07 05:32:28;;;;;;;11.53;10.30;;;;;;;9.58;100.00;102290.38;5015306;28;20285;-68
2023/05/07 05:34:56;;;;;;;12.40;10.10;;;;;;;9.57;100.00;102291.19;5010001;28;20194;-68
2023/05/07 05:37:21;;;;;;;12.87;9.83;;;;;;;9.55;100.00;102285.13;5010870;28;20201;-67
2023/05/07 05:39:48;;;;;;;12.00;10.40;;;;;;;9.56;100.00;102294.53;5011862;28;20270;-69
2023/05/07 05:42:13;;;;;;;13.43;9.80;;;;;;;9.56;100.00;102292.00;5023948;28;20314;-68
2023/05/07 05:44:39;;;;;;;12.97;9.90;;;;;;;9.59;100.00;102297.22;5024471;28;20193;-67
2023/05/07 05:47:05;;;;;;;11.43;10.30;;;;;;;9.61;100.00;102292.19;5009845;28;20201;-67
2023/05/07 05:49:31;;;;;;;13.50;11.17;;;;;;;9.62;100.00;102291.38;5008109;28;20269;-67
2023/05/07 05:51:57;;;;;;;11.63;9.93;;;;;;;9.61;100.00;102294.75;5010765;28;20309;-69
2023/05/07 05:54:24;;;;;;;11.60;10.37;;;;;;;9.62;100.00;102296.50;5009194;28;20190;-67
2023/05/07 05:56:50;;;;;;;12.23;10.03;;;;;;;9.64;100.00;102298.31;5015445;28;20197;-69
2023/05/07 05:59:15;;;;;;;12.50;10.70;;;;;;;9.67;100.00;102301.03;5007931;28;20253;-67
2023/05/07 06:01:41;;;;;;;12.67;10.97;;;;;;;9.72;100.00;102299.53;5021707;28;20215;-69
2023/05/07 06:04:07;;;;;;;13.37;10.40;;;;;;;9.69;100.00;102306.22;4999670;28;20729;-68
2023/05/07 06:06:33;;;;;;;12.30;10.73;;;;;;;9.74;100.00;102309.84;5024067;28;20190;-68
2023/05/07 06:08:59;;;;;;;13.60;10.00;;;;;;;9.76;100.00;102314.22;5010372;28;20664;-69
2023/05/07 06:11:32;;;;;;;13.07;10.33;;;;;;;9.77;100.00;102313.41;5010480;28;20219;-66
2023/05/07 06:13:58;;;;;;;12.77;9.93;;;;;;;9.77;100.00;102321.09;5009819;28;20192;-69
2023/05/07 06:16:24;;;;;;;12.43;10.50;;;;;;;9.71;100.00;102325.03;4988568;28;20557;-68
2023/05/07 06:18:50;;;;;;;12.80;9.50;;;;;;;9.78;100.00;102325.44;5007156;28;20211;-68
2023/05/07 06:21:16;;;;;;;13.53;9.77;;;;;;;9.79;100.00;102324.63;5020471;28;20218;-68
2023/05/07 06:23:41;;;;;;;11.23;8.80;;;;;;;9.84;100.00;102324.81;5008416;28;20727;-68
2023/05/07 06:26:07;;;;;;;12.37;10.00;;;;;;;9.84;100.00;102325.69;5008911;28;20233;-68
2023/05/07 06:28:38;;;;;;;12.27;9.10;;;;;;;9.84;100.00;102320.59;5026380;28;20213;-68
2023/05/07 06:31:21;;;;;;;11.60;9.07;;;;;;;9.91;100.00;102322.59;5010114;28;20218;-68
2023/05/07 06:33:58;;;;;;;10.07;8.30;;;;;;;9.94;100.00;102321.88;5016197;28;20773;-68
2023/05/07 06:36:30;;;;;;;13.80;8.90;;;;;;;9.97;100.00;102330.56;5009188;28;20198;-68
2023/05/07 06:38:58;;;;;;;9.50;8.43;;;;;;;10.00;100.00;102329.84;5009893;28;20726;-68
2023/05/07 06:41:23;;;;;;;9.13;7.60;;;;;;;10.07;100.00;102326.78;5027523;28;20214;-68
2023/05/07 06:43:49;;;;;;;10.60;8.03;;;;;;;10.07;100.00;102324.22;5004435;28;20207;-68
2023/05/07 06:46:29;;;;;;;9.70;8.40;;;;;;;10.07;100.00;102316.53;5007605;28;20194;-68
2023/05/07 06:48:56;;;;;;;9.43;8.53;;;;;;;10.10;100.00;102322.66;5006669;28;20576;-68
2023/05/07 06:51:22;;;;;;;9.80;7.80;;;;;;;10.08;100.00;102325.94;5024764;28;20218;-68
2023/05/07 06:53:48;;;;;;;8.70;7.23;;;;;;;10.13;100.00;102324.50;5009134;28;20198;-68
2023/05/07 06:56:14;;;;;;;10.20;8.23;;;;;;;10.18;100.00;102326.44;5026224;28;20524;-67
2023/05/07 06:58:39;;;;;;;8.80;7.90;;;;;;;10.21;100.00;102323.13;5013451;28;20253;-68
2023/05/07 07:01:06;;;;;;;10.00;7.77;;;;;;;10.25;100.00;102318.25;5012124;28;20226;-69
2023/05/07 07:03:33;;;;;;;11.50;8.83;;;;;;;10.24;100.00;102329.28;5009522;28;20200;-68
2023/05/07 07:05:59;;;;;;;9.03;8.13;;;;;;;10.24;100.00;102328.41;5008706;28;20186;-68
2023/05/07 07:08:25;;;;;;;12.53;8.27;;;;;;;10.19;100.00;102329.88;5011308;28;20190;-67
2023/05/07 07:10:51;;;;;;;9.27;8.23;;;;;;;10.15;100.00;102334.00;5008447;28;20211;-68
2023/05/07 07:13:16;;;;;;;9.73;8.73;;;;;;;10.18;100.00;102334.13;5017167;28;20218;-68
2023/05/07 07:15:43;;;;;;;10.60;7.90;;;;;;;10.28;100.00;102335.41;5021061;28;20285;-68
2023/05/07 07:18:08;;;;;;;9.40;7.90;;;;;;;10.24;100.00;102341.22;5022590;28;20218;-68
2023/05/07 07:20:34;;;;;;;9.77;8.73;;;;;;;10.25;100.00;102335.28;5007472;28;20300;-68
2023/05/07 07:23:00;;;;;;;10.10;7.60;;;;;;;10.26;100.00;102332.78;5012360;28;20650;-68
2023/05/07 07:25:25;;;;;;;9.00;7.83;;;;;;;10.31;100.00;102343.22;5024865;28;20715;-68
2023/05/07 07:27:51;;;;;;;11.33;8.00;;;;;;;10.38;100.00;102337.56;5005503;28;20195;-68
2023/05/07 07:30:17;;;;;;;9.87;7.47;;;;;;;10.32;100.00;102337.31;5010578;28;20281;-68
2023/05/07 07:32:45;;;;;;;7.80;7.00;;;;;;;10.33;100.00;102332.22;5018581;28;20191;-68
2023/05/07 07:35:11;;;;;;;8.17;7.37;;;;;;;10.35;100.00;102332.31;5022623;28;20206;-68
2023/05/07 07:37:38;;;;;;;9.53;8.10;;;;;;;10.41;100.00;102325.78;5005231;28;20230;-68
2023/05/07 07:40:03;;;;;;;8.67;7.50;;;;;;;10.47;100.00;102326.03;5004022;28;20218;-68
2023/05/07 07:42:29;;;;;;;9.10;7.57;;;;;;;10.50;100.00;102326.16;5004572;28;20209;-68
2023/05/07 07:44:56;;;;;;;10.30;7.20;;;;;;;10.90;100.00;102324.50;5002739;28;20824;-67
2023/05/07 07:47:24;;;;;;;8.67;7.47;;;;;;;10.81;100.00;102336.94;5027744;28;20206;-68
2023/05/07 07:49:51;;;;;;;8.67;6.57;;;;;;;10.77;100.00;102344.41;5001542;28;20285;-68
2023/05/07 07:52:18;;;;;;;8.97;7.30;;;;;;;10.73;100.00;102340.00;5010792;28;20228;-68
2023/05/07 07:54:44;;;;;;;9.73;7.60;;;;;;;10.69;100.00;102332.97;5007492;28;20279;-68
2023/05/07 07:57:10;;;;;;;8.00;7.07;;;;;;;10.79;100.00;102341.09;5012740;28;20221;-68
2023/05/07 07:59:36;;;;;;;8.90;7.00;;;;;;;10.91;100.00;102335.59;5024582;28;20217;-68
2023/05/07 08:02:02;;;;;;;8.43;7.40;;;;;;;10.90;100.00;102339.00;5011638;28;20253;-67
2023/05/07 08:04:30;;;;;;;7.63;6.87;;;;;;;11.01;100.00;102336.06;5006276;28;20199;-68
2023/05/07 08:06:57;;;;;;;8.37;7.57;;;;;;;11.06;100.00;102342.25;5010879;28;20186;-67
2023/05/07 08:09:23;;;;;;;9.07;7.50;;;;;;;11.11;100.00;102334.75;5010910;28;20198;-68
2023/05/07 08:11:49;;;;;;;10.37;8.93;;;;;;;10.98;100.00;102335.06;5015489;28;20214;-68
2023/05/07 08:14:15;;;;;;;9.90;8.43;;;;;;;10.96;100.00;102342.69;5031294;28;20670;-68
2023/05/07 08:16:42;;;;;;;9.47;8.33;;;;;;;10.92;100.00;102361.31;5013103;28;20280;-68
2023/05/07 08:19:08;;;;;;;9.67;8.33;;;;;;;11.01;100.00;102350.59;5025424;28;20300;-67
2023/05/07 08:21:34;;;;;;;10.17;8.20;;;;;;;10.97;100.00;102348.69;5012792;28;20206;-68
2023/05/07 08:24:00;;;;;;;8.83;7.63;;;;;;;10.95;100.00;102363.13;5013958;28;20198;-68
2023/05/07 08:26:26;;;;;;;8.53;7.70;;;;;;;10.97;100.00;102353.81;5007642;28;20190;-67
2023/05/07 08:28:51;;;;;;;11.10;8.53;;;;;;;11.06;100.00;102352.50;5015121;28;20268;-68
2023/05/07 08:31:16;;;;;;;12.87;9.30;;;;;;;11.17;100.00;102353.84;5015153;28;20308;-67
2023/05/07 08:33:44;;;;;;;17.47;9.63;;;;;;;11.15;100.00;102350.31;5008734;28;20198;-67
2023/05/07 08:36:10;;;;;;;9.77;7.90;;;;;;;11.20;100.00;102348.81;4997813;28;20234;-68
2023/05/07 08:38:36;;;;;;;8.90;7.37;;;;;;;11.18;100.00;102355.59;5011336;28;20206;-66
2023/05/07 08:41:02;;;;;;;9.17;8.17;;;;;;;11.10;100.00;102359.50;5014479;28;20206;-68
2023/05/07 08:43:32;;;;;;;8.43;7.53;;;;;;;11.22;100.00;102359.13;5010029;28;20206;-68
2023/05/07 08:46:02;;;;;;;8.93;8.03;;;;;;;11.33;100.00;102360.47;5008094;28;20205;-68
2023/05/07 08:48:32;;;;;;;9.97;7.50;;;;;;;11.15;100.00;102363.13;5028214;28;20317;-67
2023/05/07 08:51:06;;;;;;;7.37;6.67;;;;;;;11.15;100.00;102367.41;5008679;28;20614;-68
2023/05/07 08:53:33;;;;;;;7.40;6.70;;;;;;;11.17;100.00;102366.66;5012625;28;20278;-68
2023/05/07 08:55:59;;;;;;;7.13;6.50;;;;;;;11.21;100.00;102370.22;5012158;28;20253;-68
2023/05/07 08:58:25;;;;;;;7.13;6.43;;;;;;;11.36;100.00;102370.84;5004928;28;20211;-68
2023/05/07 09:00:52;;;;;;;8.17;6.77;;;;;;;11.43;100.00;102373.72;5009993;28;20213;-68
2023/05/07 09:03:19;;;;;;;7.63;6.83;;;;;;;11.44;100.00;102377.16;5005641;28;20612;-68
2023/05/07 09:05:48;;;;;;;6.97;6.27;;;;;;;11.51;100.00;102376.56;5024213;28;20194;-68
2023/05/07 09:08:16;;;;;;;7.93;7.13;;;;;;;11.34;100.00;102370.78;5027637;28;20289;-68
2023/05/07 09:10:42;;;;;;;9.43;6.60;;;;;;;11.26;100.00;102376.41;5006927;28;20272;-67
2023/05/07 09:13:10;;;;;;;8.27;7.43;;;;;;;11.29;100.00;102382.53;5008992;28;20930;-67
2023/05/07 09:15:36;;;;;;;8.43;7.10;;;;;;;11.25;100.00;102383.22;5009605;28;20202;-67
2023/05/07 09:18:02;;;;;;;10.27;7.03;;;;;;;11.32;100.00;102384.34;5024901;28;20213;-67
2023/05/07 09:20:30;;;;;;;8.43;6.77;;;;;;;11.35;100.00;102381.91;5005262;28;20214;-67
2023/05/07 09:22:56;;;;;;;7.90;7.17;;;;;;;11.35;100.00;102387.94;5011147;28;20980;-67
2023/05/07 09:25:30;;;;;;;8.77;7.53;;;;;;;11.32;100.00;102389.47;5022173;28;20195;-67
2023/05/07 09:27:58;;;;;;;8.67;7.20;;;;;;;11.28;100.00;102391.03;5009261;28;20612;-67
2023/05/07 09:30:28;;;;;;;7.83;7.07;;;;;;;11.44;100.00;102401.13;5004945;28;20257;-67
2023/05/07 09:32:54;;;;;;;8.67;7.13;;;;;;;11.43;100.00;102391.66;5010358;28;20605;-67
2023/05/07 09:35:24;;;;;;;8.10;7.30;;;;;;;11.69;100.00;102400.44;5004338;28;20195;-67
2023/05/07 09:37:59;;;;;;;7.63;6.73;;;;;;;11.69;100.00;102403.00;5009620;28;20827;-67
2023/05/07 09:40:27;;;;;;;7.73;6.83;;;;;;;11.70;100.00;102387.66;5007332;28;20211;-67
2023/05/07 09:42:55;;;;;;;7.60;6.90;;;;;;;11.77;100.00;102389.69;5006234;28;20242;-66
2023/05/07 09:45:26;;;;;;;8.83;7.40;;;;;;;11.74;100.00;102394.69;4993618;28;20201;-67
2023/05/07 09:47:55;;;;;;;8.13;7.00;;;;;;;11.79;100.00;102389.72;5004829;28;22735;-67
2023/05/07 09:50:29;;;;;;;7.87;6.70;;;;;;;11.82;100.00;102377.91;4997855;28;20225;-67
2023/05/07 09:52:56;;;;;;;6.97;6.30;;;;;;;12.08;100.00;102386.59;5011316;28;20221;-67
2023/05/07 09:55:23;;;;;;;7.57;6.77;;;;;;;12.03;100.00;102391.53;5007993;28;20282;-67
2023/05/07 09:57:52;;;;;;;7.27;6.57;;;;;;;11.91;100.00;102396.22;5004436;28;20291;-67
2023/05/07 10:00:19;;;;;;;10.17;6.47;;;;;;;12.09;100.00;102396.94;5006925;28;20242;-67
2023/05/07 10:02:51;;;;;;;7.33;6.60;;;;;;;12.20;100.00;102399.88;5021951;28;20203;-67
2023/05/07 10:05:22;;;;;;;7.00;6.30;;;;;;;12.28;100.00;102383.06;5007627;28;20281;-67
2023/05/07 10:07:50;;;;;;;7.33;5.83;;;;;;;12.43;100.00;102375.91;5010017;28;20187;-67
2023/05/07 10:10:17;;;;;;;7.33;6.63;;;;;;;12.35;100.00;102385.91;5002400;28;20588;-67
2023/05/07 10:12:45;;;;;;;7.70;6.13;;;;;;;12.37;100.00;102386.88;5010690;28;20233;-66
2023/05/07 10:15:16;;;;;;;6.47;5.80;;;;;;;12.40;100.00;102368.13;5024455;28;20286;-66
2023/05/07 10:17:48;;;;;;;7.23;5.93;;;;;;;12.53;100.00;102375.47;4999042;28;20195;-67
2023/05/07 10:20:14;;;;;;;6.33;5.63;;;;;;;12.55;100.00;102368.66;5004558;28;20232;-67
2023/05/07 10:22:45;;;;;;;6.93;6.10;;;;;;;12.63;100.00;102369.81;5021936;28;20190;-67
2023/05/07 10:25:22;;;;;;;8.20;6.27;;;;;;;12.57;100.00;102373.03;5010789;28;20190;-67
2023/05/07 10:27:52;;;;;;;6.33;5.73;;;;;;;12.51;100.00;102380.53;5010942;28;20202;-67
2023/05/07 10:31:04;;;;;;;7.53;6.00;;;;;;;12.67;100.00;102372.53;5003824;28;20187;-66
2023/05/07 10:33:37;;;;;;;7.53;5.90;;;;;;;12.57;100.00;102385.00;5004909;28;20234;-67
2023/05/07 10:36:04;;;;;;;6.80;6.10;;;;;;;12.56;100.00;102380.69;5018075;28;20197;-67
2023/05/07 10:38:31;;;;;;;6.50;5.77;;;;;;;12.66;100.00;102367.34;5005532;28;20293;-67
2023/05/07 10:40:59;;;;;;;7.80;6.20;;;;;;;12.76;100.00;102361.72;5006059;28;20258;-67
2023/05/07 10:43:24;;;;;;;5.97;5.40;;;;;;;12.79;100.00;102366.94;5006802;28;21016;-67
2023/05/07 10:46:16;;;;;;;6.80;6.10;;;;;;;12.85;100.00;102362.91;5009858;28;20196;-68
2023/05/07 10:49:02;;;;;;;6.50;5.90;;;;;;;13.00;100.00;102362.59;5018271;28;20215;-67
2023/05/07 10:51:35;;;;;;;7.27;6.23;;;;;;;12.82;100.00;102338.78;5008917;28;20233;-67
2023/05/07 10:54:12;;;;;;;6.80;6.10;;;;;;;13.08;100.00;102352.56;5005899;28;20218;-67
2023/05/07 10:56:44;;;;;;;7.00;6.07;;;;;;;13.10;100.00;102345.75;5021496;28;20221;-68
2023/05/07 10:59:21;;;;;;;6.13;5.37;;;;;;;13.03;100.00;102312.97;5003025;28;20221;-67
2023/05/07 11:02:03;;;;;;;6.50;5.50;;;;;;;13.41;100.00;102291.91;5006146;28;20221;-67
2023/05/07 11:04:41;;;;;;;5.60;5.07;;;;;;;13.34;100.00;102259.06;5001805;28;20198;-67
2023/05/07 11:07:28;;;;;;;5.23;4.73;;;;;;;13.43;100.00;102269.66;5010204;28;20286;-68
2023/05/07 11:10:01;;;;;;;7.23;5.40;;;;;;;13.85;100.00;102230.63;5009650;28;20194;-68
2023/05/07 11:12:56;;;;;;;5.17;4.67;;;;;;;13.96;100.00;102211.19;5019577;28;20662;-68
2023/05/07 11:15:36;;;;;;;5.17;4.77;;;;;;;14.02;100.00;102223.34;5007312;28;20182;-66